Andover, IA

8:57 PM CDT on August 02, 2015 (GMT -0500)
Mayer Farm @ Eagle Point | | Change Station
CLOSE
Current Station
Personal Weather Station
Location: Clinton, IA
Elevation: 745 ft
Nearby Weather Stations
Active Advisory: Severe Thunderstorm Watch

Elev 745 ft 41.89 °N, 90.19 °W | Updated 3 minutes ago

Clear
Clear
81.8 °F
Feels Like 89 °F
N
8.0
Wind Variable Wind from WSW
Gusts 12.0 mph

Today
High -- | Low -- °F
--% Chance of Precip.
Yesterday
High -- | Low -- °F
Precip. -- in
5:55 AM 8:18 PM
Waning Gibbous, 90% visible
Pressure 29.69 in
Visibility 10.0 miles
Clouds Clear
Heat Index 89 °F
Dew Point 76 °F
Humidity 82%
Rainfall 0.00 in
Snow Depth Not available.
UV 0 out of 12
Pollen 6.20 out of 12
Air Quality Not available.
Flu Activity Not available.
METAR KSFY 030135Z AUTO 24008KT 10SM CLR 29/23 A2969 RMK AO2 LTG DSNT E T02900228

More Conditions Fewer Conditions

Pressure 29.69 in
Visibility 10.0 miles
Clouds Clear
Heat Index 89 °F
Dew Point 76 °F
Humidity 82%
Rainfall 0.00 in
Snow Depth Not available.
UV 0 out of 12
Pollen 6.20 out of 12
Air Quality Not available.
Flu Activity Not available.
METAR KSFY 030135Z AUTO 24008KT 10SM CLR 29/23 A2969 RMK AO2 LTG DSNT E T02900228

More Conditions Fewer Conditions

10-Day Weather Forecast

×

Almanac

Astronomy

Aug. 02, 2015 Rise Set
Actual Time
Civil Twilight
Nautical Twilight
Astronomical Twilight
Moon
Length of Visible Light
Length of Day
Tomorrow will be .
, % of the Moon is Illuminated

Today's Extremes

State Highs State Lows

Community

WunderPhotos

Upload Photos

1,843,512 photos uploaded!

WunderBlogs® & News

Nearby

Air Quality

  Air Quality AQ Index Pollutant
Not available.

Snow Depth

Station Depth Elevation

Earthquake Activity

City Distance Mag. Time & Date
Minimum magnitude displayed is 2.5.

Coastal Water Temperatures

Place Temperature

Stations

Nearby Weather Stations

Station Location Temp. Windchill Dew Point Humidity Wind Precip. Elev Updated Type
                   
Severe Thunderstorm Watch
Statement as of 8:43 PM CDT on August 02, 2015

Severe Thunderstorm Watch 465 remains in effect until 200 am CDT
for the following locations


IA
. Iowa counties included are

Cedar Clinton Des Moines
Iowa Jackson Johnson
Jones Linn Louisa
Muscatine Scott